createdAt,value
2022-10-23T00:01:33.599Z,12.40
2022-10-23T00:04:09.422Z,11.68
2022-10-23T00:06:43.795Z,17.23
2022-10-23T00:09:21.369Z,15.90
2022-10-23T00:11:55.834Z,12.83
2022-10-23T00:14:29.966Z,17.60
2022-10-23T00:17:03.705Z,12.05
2022-10-23T00:19:37.744Z,16.60
2022-10-23T00:22:11.868Z,14.75
2022-10-23T00:24:48.358Z,18.85
2022-10-23T00:27:22.756Z,19.15
2022-10-23T00:29:57.912Z,12.88
2022-10-23T00:35:07.414Z,14.77
2022-10-23T00:37:41.978Z,16.95
2022-10-23T00:40:18.518Z,12.30
2022-10-23T00:42:52.783Z,11.93
2022-10-23T00:45:27.727Z,14.70
2022-10-23T00:48:01.980Z,11.68
2022-10-23T00:50:35.928Z,11.27
2022-10-23T00:53:09.859Z,13.83
2022-10-23T00:55:47.436Z,13.95
2022-10-23T00:58:22.605Z,13.00
2022-10-23T01:00:57.708Z,13.90
2022-10-23T01:03:31.886Z,12.43
2022-10-23T01:06:08.180Z,13.90
2022-10-23T01:08:43.962Z,11.70
2022-10-23T01:11:22.797Z,15.50
2022-10-23T01:14:01.142Z,13.13
2022-10-23T01:16:32.199Z,14.05
2022-10-23T01:19:10.571Z,13.65
2022-10-23T01:21:52.084Z,13.40
2022-10-23T01:24:40.539Z,16.80
2022-10-23T01:27:23.691Z,12.00
2022-10-23T01:30:06.110Z,12.95
2022-10-23T01:32:48.286Z,11.48
2022-10-23T01:35:25.066Z,11.77
2022-10-23T01:38:08.518Z,12.50
2022-10-23T01:40:46.449Z,9.75
2022-10-23T01:43:24.101Z,12.65
2022-10-23T01:45:59.077Z,8.75
2022-10-23T01:48:33.074Z,7.07
2022-10-23T01:51:09.119Z,7.63
2022-10-23T01:53:44.902Z,9.85
2022-10-23T01:56:22.539Z,10.80
2022-10-23T01:59:00.302Z,6.90
2022-10-23T02:01:37.832Z,7.53
2022-10-23T02:04:12.810Z,12.33
2022-10-23T02:06:46.776Z,7.13
2022-10-23T02:09:21.889Z,7.63
2022-10-23T02:11:57.888Z,8.20
2022-10-23T02:17:16.160Z,7.68
2022-10-23T02:19:53.484Z,7.95
2022-10-23T02:22:30.001Z,11.45
2022-10-23T02:25:07.705Z,7.90
2022-10-23T02:27:43.109Z,10.82
2022-10-23T02:30:21.095Z,9.55
2022-10-23T02:33:01.757Z,10.85
2022-10-23T02:35:35.828Z,9.35
2022-10-23T02:38:38.294Z,7.35
2022-10-23T02:41:22.180Z,9.00
2022-10-23T02:44:23.934Z,9.52
2022-10-23T02:46:55.298Z,10.13
2022-10-23T02:49:37.288Z,9.95
2022-10-23T02:52:17.319Z,7.27
2022-10-23T02:57:33.989Z,6.43
2022-10-23T03:00:11.690Z,10.15
2022-10-23T03:02:48.626Z,9.65
2022-10-23T03:05:27.112Z,6.90
2022-10-23T03:08:01.911Z,6.47
2022-10-23T03:10:35.768Z,6.35
2022-10-23T03:13:09.824Z,9.15
2022-10-23T03:15:50.794Z,7.83
2022-10-23T03:18:24.849Z,8.52
2022-10-23T03:21:00.602Z,7.70
2022-10-23T03:23:35.832Z,9.13
2022-10-23T03:26:09.817Z,8.97
2022-10-23T03:28:48.773Z,7.75
2022-10-23T03:31:23.783Z,14.10
2022-10-23T03:34:04.139Z,13.40
2022-10-23T03:36:44.443Z,9.43
2022-10-23T03:39:19.273Z,11.18
2022-10-23T03:41:52.767Z,10.10
2022-10-23T03:44:31.241Z,11.10
2022-10-23T03:47:05.785Z,13.73
2022-10-23T03:49:39.790Z,11.60
2022-10-23T03:52:16.467Z,9.95
2022-10-23T03:54:50.827Z,12.30
2022-10-23T03:57:24.795Z,10.40
2022-10-23T03:59:58.778Z,11.70
2022-10-23T04:02:36.830Z,10.52
2022-10-23T04:05:11.129Z,8.82
2022-10-23T04:07:49.388Z,11.40
2022-10-23T04:10:23.761Z,11.40
2022-10-23T04:12:57.821Z,10.93
2022-10-23T04:15:31.808Z,9.50
2022-10-23T04:18:05.780Z,8.05
2022-10-23T04:20:39.787Z,12.32
2022-10-23T04:23:16.857Z,8.02
2022-10-23T04:25:52.917Z,7.35
2022-10-23T04:28:30.851Z,6.78
2022-10-23T04:31:04.807Z,7.83
2022-10-23T04:33:38.854Z,7.63
2022-10-23T04:36:12.999Z,6.70
2022-10-23T04:38:50.828Z,6.82
2022-10-23T04:41:24.757Z,6.50
2022-10-23T04:43:58.782Z,8.88
2022-10-23T04:46:32.760Z,10.32
2022-10-23T04:49:06.779Z,7.47
2022-10-23T04:52:00.784Z,8.68
2022-10-23T04:54:53.110Z,10.57
2022-10-23T04:57:29.385Z,11.75
2022-10-23T05:00:17.201Z,8.63
2022-10-23T05:02:56.763Z,10.55
2022-10-23T05:05:30.830Z,11.73
2022-10-23T05:08:15.639Z,9.20
2022-10-23T05:11:11.772Z,8.10
2022-10-23T05:13:53.429Z,6.55
2022-10-23T05:16:36.535Z,6.20
2022-10-23T05:19:11.184Z,6.72
2022-10-23T05:21:45.795Z,8.80
2022-10-23T05:24:19.906Z,9.60
2022-10-23T05:27:02.827Z,7.60
2022-10-23T05:29:41.414Z,8.55
2022-10-23T05:32:17.220Z,6.53
2022-10-23T05:34:52.821Z,7.13
2022-10-23T05:37:28.618Z,9.40
2022-10-23T05:40:15.028Z,8.83
2022-10-23T05:42:51.793Z,8.05
2022-10-23T05:45:35.746Z,6.90
2022-10-23T05:48:35.989Z,6.67
2022-10-23T05:51:20.459Z,7.07
2022-10-23T05:54:00.712Z,8.60
2022-10-23T05:56:41.659Z,10.60
2022-10-23T05:59:39.359Z,13.57
2022-10-23T06:02:27.068Z,11.55
2022-10-23T06:05:08.620Z,9.43
2022-10-23T06:08:03.098Z,10.35
2022-10-23T06:10:38.670Z,10.77
2022-10-23T06:13:14.786Z,10.07
2022-10-23T06:15:49.218Z,7.93
2022-10-23T06:18:31.980Z,9.55
2022-10-23T06:21:12.210Z,13.35
2022-10-23T06:23:47.623Z,12.02
2022-10-23T06:26:31.230Z,10.10
2022-10-23T06:29:28.895Z,11.70
2022-10-23T06:32:02.933Z,14.15
2022-10-23T06:34:40.189Z,15.48
2022-10-23T06:37:15.965Z,14.75
2022-10-23T06:39:53.298Z,10.65
2022-10-23T06:42:37.547Z,11.10
2022-10-23T06:45:32.829Z,12.73
2022-10-23T06:48:22.309Z,11.80
2022-10-23T06:51:20.363Z,12.35
2022-10-23T06:53:55.635Z,11.65
2022-10-23T06:57:02.267Z,10.18
2022-10-23T06:59:50.542Z,10.02
2022-10-23T07:02:24.956Z,11.15
2022-10-23T07:04:59.885Z,9.40
2022-10-23T07:07:37.038Z,10.18
2022-10-23T07:13:08.971Z,8.48
2022-10-23T07:15:46.519Z,10.35
2022-10-23T07:18:26.705Z,10.37
2022-10-23T07:21:20.433Z,10.30
2022-10-23T07:23:58.703Z,9.90
2022-10-23T07:26:35.448Z,9.45
2022-10-23T07:29:10.122Z,10.77
2022-10-23T07:31:44.155Z,9.63
2022-10-23T07:34:47.079Z,10.75
2022-10-23T07:37:32.224Z,11.30
2022-10-23T07:40:13.546Z,10.70
2022-10-23T07:42:51.953Z,11.30
2022-10-23T07:45:26.241Z,10.43
2022-10-23T07:48:00.895Z,10.13
2022-10-23T07:50:47.600Z,9.70
2022-10-23T07:53:23.109Z,10.55
2022-10-23T07:56:03.282Z,11.38
2022-10-23T07:58:57.126Z,9.00
2022-10-23T08:01:33.926Z,9.60
2022-10-23T08:04:08.255Z,8.68
2022-10-23T08:06:46.358Z,9.07
2022-10-23T08:09:21.255Z,9.25
2022-10-23T08:11:59.301Z,9.07
2022-10-23T08:14:35.094Z,7.60
2022-10-23T08:17:10.150Z,7.28
2022-10-23T08:20:13.811Z,6.63
2022-10-23T08:22:51.499Z,5.85
2022-10-23T08:25:30.458Z,6.68
2022-10-23T08:28:08.915Z,5.93
2022-10-23T08:33:26.576Z,4.30
2022-10-23T08:36:04.404Z,5.30
2022-10-23T08:38:42.243Z,4.80
2022-10-23T08:41:26.864Z,4.23
2022-10-23T08:44:18.013Z,3.40
2022-10-23T08:46:58.994Z,4.43
2022-10-23T08:49:51.667Z,4.05
2022-10-23T08:52:29.273Z,4.10
2022-10-23T08:55:08.144Z,4.18
2022-10-23T08:57:44.872Z,4.40
2022-10-23T09:00:22.587Z,4.10
2022-10-23T09:02:57.654Z,4.40
2022-10-23T09:05:34.323Z,3.90
2022-10-23T09:08:16.711Z,3.55
2022-10-23T09:11:04.590Z,3.60
2022-10-23T09:14:05.105Z,4.47
2022-10-23T09:16:47.183Z,3.80
2022-10-23T09:19:24.926Z,3.93
2022-10-23T09:21:59.682Z,4.20
2022-10-23T09:24:35.085Z,4.50
2022-10-23T09:27:12.074Z,3.95
2022-10-23T09:29:51.107Z,3.60
2022-10-23T09:32:38.448Z,3.83
2022-10-23T09:35:25.041Z,3.70
2022-10-23T09:37:59.755Z,3.53
2022-10-23T09:40:36.778Z,3.55
2022-10-23T09:43:18.058Z,3.38
2022-10-23T09:45:48.489Z,4.17
2022-10-23T09:48:26.393Z,3.63
2022-10-23T09:51:02.695Z,2.70
2022-10-23T09:53:38.984Z,3.70
2022-10-23T09:56:28.407Z,3.47
2022-10-23T09:59:04.729Z,3.60
2022-10-23T10:01:47.595Z,2.72
2022-10-23T10:04:44.785Z,3.15
2022-10-23T10:07:22.630Z,2.67
2022-10-23T10:09:57.327Z,2.78
2022-10-23T10:12:43.470Z,2.85
2022-10-23T10:15:26.614Z,2.63
2022-10-23T10:18:06.217Z,2.33
2022-10-23T10:20:36.145Z,2.58
2022-10-23T10:23:17.429Z,2.20
2022-10-23T10:25:57.600Z,2.30
2022-10-23T10:28:36.894Z,2.50
2022-10-23T10:31:14.943Z,2.50
2022-10-23T10:33:52.734Z,1.90
2022-10-23T10:36:36.327Z,3.40
2022-10-23T10:39:19.161Z,2.70
2022-10-23T10:41:57.777Z,2.50
2022-10-23T10:44:41.448Z,3.15
2022-10-23T10:47:18.515Z,2.75
2022-10-23T10:50:07.780Z,3.00
2022-10-23T10:53:05.383Z,2.63
2022-10-23T10:55:45.101Z,2.90
2022-10-23T10:58:23.920Z,2.70
2022-10-23T11:00:58.234Z,2.63
2022-10-23T11:03:39.955Z,2.63
2022-10-23T11:06:17.197Z,3.28
2022-10-23T11:08:58.032Z,3.40
2022-10-23T11:11:47.528Z,2.90
2022-10-23T11:14:23.060Z,2.47
2022-10-23T11:17:01.212Z,2.72
2022-10-23T11:19:37.926Z,2.85
2022-10-23T11:22:14.600Z,3.60
2022-10-23T11:25:25.338Z,3.10
2022-10-23T11:28:10.869Z,3.25
2022-10-23T11:30:50.975Z,3.40
2022-10-23T11:33:55.250Z,2.90
2022-10-23T11:36:27.404Z,2.97
2022-10-23T11:39:17.495Z,2.90
2022-10-23T11:41:57.378Z,4.00
2022-10-23T11:44:52.812Z,3.55
2022-10-23T11:47:39.546Z,3.05
2022-10-23T11:50:19.352Z,3.30
2022-10-23T11:53:15.842Z,3.80
2022-10-23T11:56:04.380Z,3.50
2022-10-23T11:58:47.103Z,3.50
2022-10-23T12:01:34.734Z,3.95
2022-10-23T12:04:19.379Z,3.90
2022-10-23T12:06:54.345Z,4.57
2022-10-23T12:09:39.150Z,3.65
2022-10-23T12:12:19.006Z,3.75
2022-10-23T12:14:55.595Z,4.53
2022-10-23T12:17:38.950Z,4.82
2022-10-23T12:20:31.842Z,4.43
2022-10-23T12:23:35.188Z,4.55
2022-10-23T12:26:28.558Z,4.80
2022-10-23T12:29:05.284Z,4.15
2022-10-23T12:31:47.063Z,5.63
2022-10-23T12:34:18.489Z,4.43
2022-10-23T12:37:17.581Z,4.70
2022-10-23T12:39:56.008Z,4.50
2022-10-23T12:42:31.710Z,4.57
2022-10-23T12:45:08.791Z,3.97
2022-10-23T12:47:43.470Z,5.15
2022-10-23T12:50:21.757Z,5.35
2022-10-23T12:53:01.291Z,4.90
2022-10-23T12:55:51.450Z,4.40
2022-10-23T12:58:30.922Z,5.28
2022-10-23T13:01:07.734Z,4.53
2022-10-23T13:03:42.832Z,5.17
2022-10-23T13:06:20.314Z,4.60
2022-10-23T13:08:57.848Z,5.20
2022-10-23T13:11:46.422Z,4.50
2022-10-23T13:14:33.146Z,5.25
2022-10-23T13:17:06.831Z,6.80
2022-10-23T13:19:44.283Z,7.75
2022-10-23T13:22:21.480Z,6.93
2022-10-23T13:24:59.460Z,6.10
2022-10-23T13:27:36.356Z,4.90
2022-10-23T13:30:32.684Z,4.78
2022-10-23T13:33:17.694Z,4.18
2022-10-23T13:35:59.480Z,4.43
2022-10-23T13:38:35.838Z,3.90
2022-10-23T13:41:10.975Z,4.03
2022-10-23T13:43:49.491Z,4.55
2022-10-23T13:46:25.837Z,4.00
2022-10-23T13:49:00.811Z,4.05
2022-10-23T13:51:42.513Z,4.10
2022-10-23T13:54:18.903Z,4.73
2022-10-23T13:56:54.725Z,4.07
2022-10-23T13:59:32.517Z,4.03
2022-10-23T14:02:09.620Z,4.10
2022-10-23T14:04:45.954Z,3.80
2022-10-23T14:07:20.276Z,3.58
2022-10-23T14:09:55.126Z,3.75
2022-10-23T14:12:32.340Z,4.00
2022-10-23T14:15:10.873Z,3.60
2022-10-23T14:17:45.203Z,3.45
2022-10-23T14:20:22.248Z,3.90
2022-10-23T14:22:57.642Z,4.25
2022-10-23T14:25:33.234Z,4.05
2022-10-23T14:28:08.800Z,3.70
2022-10-23T14:30:47.380Z,4.03
2022-10-23T14:33:21.687Z,4.00
2022-10-23T14:35:58.570Z,3.33
2022-10-23T14:38:34.329Z,3.20
2022-10-23T14:41:13.322Z,3.03
2022-10-23T14:43:47.469Z,2.95
2022-10-23T14:46:25.631Z,3.00
2022-10-23T14:49:02.523Z,2.92
2022-10-23T14:51:38.505Z,3.58
2022-10-23T14:56:48.257Z,2.85
2022-10-23T14:59:22.666Z,3.15
2022-10-23T15:02:00.403Z,3.25
2022-10-23T15:04:35.644Z,2.95
2022-10-23T15:07:10.766Z,2.70
2022-10-23T15:09:45.695Z,3.63
2022-10-23T15:12:20.906Z,3.25
2022-10-23T15:14:55.550Z,3.20
2022-10-23T15:17:36.014Z,3.50
2022-10-23T15:20:11.240Z,2.37
2022-10-23T15:22:46.555Z,2.88
2022-10-23T15:25:22.364Z,3.95
2022-10-23T15:30:43.734Z,4.35
2022-10-23T15:33:24.832Z,13.55
2022-10-23T15:35:59.575Z,12.55
2022-10-23T15:38:34.143Z,8.25
2022-10-23T15:41:17.725Z,7.40
2022-10-23T15:43:52.098Z,6.90
2022-10-23T15:46:26.035Z,6.13
2022-10-23T15:49:02.642Z,6.35
2022-10-23T15:51:37.085Z,5.95
2022-10-23T15:54:11.702Z,6.38
2022-10-23T15:56:46.436Z,7.47
2022-10-23T15:59:20.251Z,7.77
2022-10-23T16:01:54.229Z,7.78
2022-10-23T16:04:31.360Z,6.20
2022-10-23T16:07:05.012Z,6.43
2022-10-23T16:09:39.630Z,7.40
2022-10-23T16:12:14.194Z,8.20
2022-10-23T16:14:48.233Z,7.80
2022-10-23T16:17:22.182Z,8.57
2022-10-23T16:19:58.751Z,7.80
2022-10-23T16:22:33.095Z,7.93
2022-10-23T16:25:07.493Z,7.18
2022-10-23T16:27:42.449Z,9.75
2022-10-23T16:30:17.189Z,9.00
2022-10-23T16:32:51.235Z,9.43
2022-10-23T16:35:27.679Z,8.77
2022-10-23T16:38:13.480Z,8.53
2022-10-23T16:40:54.099Z,8.88
2022-10-23T16:43:51.121Z,9.02
2022-10-23T16:46:39.635Z,10.70
2022-10-23T16:49:14.578Z,10.97
2022-10-23T16:51:51.723Z,10.75
2022-10-23T16:54:26.657Z,10.90
2022-10-23T16:57:03.179Z,10.77
2022-10-23T16:59:37.835Z,10.75
2022-10-23T17:02:12.716Z,11.50
2022-10-23T17:04:47.802Z,11.25
2022-10-23T17:07:25.518Z,11.35
2022-10-23T17:09:59.397Z,11.27
2022-10-23T17:12:33.874Z,10.55
2022-10-23T17:15:09.854Z,11.05
2022-10-23T17:17:44.648Z,10.40
2022-10-23T17:20:19.342Z,10.25
2022-10-23T17:22:56.592Z,10.75
2022-10-23T17:25:31.586Z,9.75
2022-10-23T17:28:06.807Z,9.47
2022-10-23T17:30:42.662Z,8.40
2022-10-23T17:33:17.224Z,10.43
2022-10-23T17:35:51.431Z,11.13
2022-10-23T17:38:28.062Z,10.70
2022-10-23T17:41:02.199Z,12.25
2022-10-23T17:43:36.611Z,10.38
2022-10-23T17:46:12.049Z,11.15
2022-10-23T17:48:46.895Z,13.15
2022-10-23T17:51:22.391Z,12.70
2022-10-23T17:54:00.085Z,13.52
2022-10-23T17:56:34.899Z,12.30
2022-10-23T17:59:12.381Z,12.70
2022-10-23T18:01:48.573Z,13.23
2022-10-23T18:04:23.745Z,12.40
2022-10-23T18:06:59.766Z,11.60
2022-10-23T18:09:36.855Z,11.65
2022-10-23T18:12:11.524Z,11.95
2022-10-23T18:14:47.562Z,10.45
2022-10-23T18:17:22.455Z,11.35
2022-10-23T18:20:01.868Z,10.80
2022-10-23T18:22:36.472Z,11.75
2022-10-23T18:25:13.705Z,11.63
2022-10-23T18:27:48.937Z,13.03
2022-10-23T18:30:23.446Z,13.55
2022-10-23T18:32:58.412Z,13.25
2022-10-23T18:35:32.489Z,12.65
2022-10-23T18:38:06.936Z,12.60
2022-10-23T18:40:45.397Z,11.18
2022-10-23T18:43:31.387Z,12.07
2022-10-23T18:46:15.005Z,13.85
2022-10-23T18:48:52.922Z,17.55
2022-10-23T18:51:26.626Z,15.45
2022-10-23T18:54:02.878Z,13.95
2022-10-23T18:56:40.465Z,13.65
2022-10-23T18:59:15.853Z,16.27
2022-10-23T19:01:50.653Z,15.63
2022-10-23T19:04:26.822Z,16.65
2022-10-23T19:07:02.719Z,15.45
2022-10-23T19:09:40.563Z,15.70
2022-10-23T19:12:19.071Z,15.30
2022-10-23T19:14:55.216Z,15.45
2022-10-23T19:17:31.565Z,15.25
2022-10-23T19:20:12.566Z,15.27
2022-10-23T19:22:49.199Z,23.85
2022-10-23T19:25:26.620Z,14.43
2022-10-23T19:28:04.411Z,14.52
2022-10-23T19:30:39.776Z,30.95
2022-10-23T19:33:17.300Z,40.47
2022-10-23T19:35:52.137Z,22.73
2022-10-23T19:38:30.653Z,14.00
2022-10-23T19:41:06.417Z,17.88
2022-10-23T19:43:47.319Z,13.65
2022-10-23T19:46:22.341Z,13.30
2022-10-23T19:48:56.380Z,12.10
2022-10-23T19:51:33.230Z,11.15
2022-10-23T19:54:10.778Z,13.40
2022-10-23T19:56:47.068Z,9.45
2022-10-23T19:59:24.646Z,9.15
2022-10-23T20:02:00.731Z,9.95
2022-10-23T20:04:36.172Z,17.58
2022-10-23T20:07:12.182Z,10.65
2022-10-23T20:12:21.783Z,11.55
2022-10-23T20:15:00.731Z,10.47
2022-10-23T20:17:36.417Z,9.50
2022-10-23T20:20:09.287Z,9.27
2022-10-23T20:22:44.228Z,9.20
2022-10-23T20:25:22.458Z,10.60
2022-10-23T20:27:57.870Z,12.20
2022-10-23T20:30:35.301Z,8.40
2022-10-23T20:33:09.568Z,9.10
2022-10-23T20:35:46.420Z,8.15
2022-10-23T20:38:23.173Z,8.07
2022-10-23T20:41:00.720Z,8.35
2022-10-23T20:43:35.882Z,8.65
2022-10-23T20:46:13.468Z,10.63
2022-10-23T20:48:49.054Z,13.25
2022-10-23T20:51:26.035Z,11.88
2022-10-23T20:54:03.866Z,12.90
2022-10-23T20:56:39.164Z,13.25
2022-10-23T20:59:15.645Z,10.95
2022-10-23T21:01:55.785Z,12.10
2022-10-23T21:04:30.838Z,11.50
2022-10-23T21:07:09.966Z,11.45
2022-10-23T21:09:48.125Z,11.80
2022-10-23T21:12:25.377Z,11.50
2022-10-23T21:14:59.783Z,11.55
2022-10-23T21:17:40.852Z,11.68
2022-10-23T21:20:17.428Z,27.20
2022-10-23T21:22:54.875Z,17.33
2022-10-23T21:25:29.726Z,12.23
2022-10-23T21:28:06.145Z,14.13
2022-10-23T21:30:42.628Z,12.50
2022-10-23T21:33:21.713Z,14.03
2022-10-23T21:36:12.876Z,12.15
2022-10-23T21:38:49.993Z,11.05
2022-10-23T21:41:25.753Z,11.75
2022-10-23T21:44:01.918Z,12.13
2022-10-23T21:46:37.176Z,10.63
2022-10-23T21:49:17.505Z,10.97
2022-10-23T21:51:51.663Z,10.80
2022-10-23T21:54:27.853Z,11.82
2022-10-23T21:57:03.704Z,11.88
2022-10-23T21:59:40.028Z,11.05
2022-10-23T22:02:15.799Z,12.75
2022-10-23T22:04:53.711Z,12.63
2022-10-23T22:07:33.011Z,11.50
2022-10-23T22:10:10.811Z,13.52
2022-10-23T22:12:45.471Z,16.03
2022-10-23T22:15:20.193Z,14.20
2022-10-23T22:17:55.754Z,14.00
2022-10-23T22:20:34.070Z,23.65
2022-10-23T22:23:09.298Z,27.37
2022-10-23T22:25:45.829Z,15.70
2022-10-23T22:31:04.673Z,17.40
2022-10-23T22:33:42.285Z,13.88
2022-10-23T22:36:21.506Z,15.07
2022-10-23T22:38:58.661Z,13.32
2022-10-23T22:41:34.622Z,15.15
2022-10-23T22:44:13.172Z,20.27
2022-10-23T22:46:48.806Z,18.43
2022-10-23T22:49:25.696Z,26.27
2022-10-23T22:52:04.104Z,20.65
2022-10-23T22:54:39.049Z,25.35
2022-10-23T22:57:11.946Z,19.58
2022-10-23T22:59:47.983Z,16.85
2022-10-23T23:04:56.729Z,17.85
2022-10-23T23:07:37.035Z,24.20
2022-10-23T23:10:13.805Z,31.65
2022-10-23T23:12:53.624Z,27.73
2022-10-23T23:15:31.546Z,20.60
2022-10-23T23:18:07.004Z,18.75
2022-10-23T23:20:44.211Z,21.53
2022-10-23T23:23:22.071Z,20.17
2022-10-23T23:25:57.352Z,20.15
2022-10-23T23:28:32.731Z,17.65
2022-10-23T23:31:14.272Z,20.70
2022-10-23T23:33:44.737Z,16.15
2022-10-23T23:36:22.581Z,16.53
2022-10-23T23:39:00.741Z,15.43
2022-10-23T23:41:40.406Z,15.18
2022-10-23T23:44:15.230Z,14.77
2022-10-23T23:46:52.126Z,14.82
2022-10-23T23:49:27.270Z,14.73
2022-10-23T23:52:06.036Z,15.77
2022-10-23T23:54:43.750Z,15.35
2022-10-23T23:57:20.158Z,16.92
2022-10-23T23:59:55.799Z,17.42
